Lakefield, Canada
Current Conditions -  °F | °C
As of 8:00 AM on Thursday 30 Oct 2014 (Local Time) from CYPQ Reporting Station
Clear Clear  
Wind Chill: 25°   Ceiling: Unl
Heat Index: 30°   Visibility: 9mi
Dew Point: 30°   Wind: 5mph
Humidity: 100%   Direction: 300°WNW
Pressure: 30.04"   Gusts: NA
Location:  44.43°N, 78.27°W
Report Text: CYPQ 301200Z AUTO 30004KT 9SM CLR M01/M01 A3004 RMK SLP177
Loading
Personal Weather Stations






























Interactive Weather Map
Tropical Storm Tracking
New forecast layout! Learn more

10-Day Weather Forecast

Advertisements
Track Severe Weather on mobile